Quilpie, Australia
Current Conditions -  °F | °C
As of 1:00 PM on Sunday 23 Nov 2014 (Local Time) from YBCV Reporting Station
Clear Clear  
Wind Chill: 102°   Ceiling: Unl
Heat Index: 102°   Visibility: 6mi
Dew Point: 55°   Wind: 13mph
Humidity: 21%   Direction: 350°N
Pressure: 29.88"   Gusts: NA
Location:  26.61°S, 144.27°E
Report Text: YBCV 230300Z 35011KT CAVOK 39/13 Q1012
Loading
Personal Weather Stations






























Interactive Weather Map New forecast layout! Learn more

10-Day Weather Forecast

Advertisements
Track Severe Weather on mobile